Time;durP1;ratioP1;P1;durP2;ratioP2;P2;SDS_P1;SDS_P2;PMS_P1;PMS_P2;Temp;Humidity;BMP_temperature;BMP_pressure;BME280_temperature;BME280_humidity;BME280_pressure;Samples;Min_cycle;Max_cycle;Signal;HPM_P1;HPM_P2
2022/09/22 00:00:06;;;;;;;3.03;1.73;;;20.90;62.40;;;;;;5048239;28;20053;-56
2022/09/22 00:02:32;;;;;;;2.97;1.42;;;20.90;62.40;;;;;;5048776;28;20483;-56
2022/09/22 00:04:58;;;;;;;3.53;1.50;;;20.90;62.30;;;;;;5046234;28;20032;-56
2022/09/22 00:07:24;;;;;;;2.75;1.52;;;20.90;62.40;;;;;;5049007;28;20116;-56
2022/09/22 00:09:49;;;;;;;2.72;1.58;;;20.90;62.40;;;;;;5048547;28;20021;-56
2022/09/22 00:12:15;;;;;;;3.92;1.73;;;20.90;62.40;;;;;;5047343;28;20087;-56
2022/09/22 00:14:41;;;;;;;2.78;1.48;;;20.90;62.40;;;;;;5048051;28;20032;-56
2022/09/22 00:17:06;;;;;;;2.67;1.60;;;20.90;62.40;;;;;;5047947;28;20048;-56
2022/09/22 00:19:34;;;;;;;3.15;1.30;;;20.90;62.50;;;;;;5048925;28;20487;-56
2022/09/22 00:22:00;;;;;;;3.30;1.50;;;20.90;62.50;;;;;;5042377;28;20028;-56
2022/09/22 00:24:25;;;;;;;4.75;1.48;;;20.90;62.50;;;;;;5047132;28;20021;-57
2022/09/22 00:26:55;;;;;;;3.40;1.40;;;20.80;62.40;;;;;;5048464;28;20189;-56
2022/09/22 00:29:21;;;;;;;2.40;1.48;;;20.80;62.40;;;;;;5047107;28;20021;-56
2022/09/22 00:31:47;;;;;;;4.18;1.60;;;20.80;62.40;;;;;;5048234;28;20045;-56
2022/09/22 00:34:17;;;;;;;3.90;1.40;;;20.80;62.40;;;;;;5047847;28;20025;-57
2022/09/22 00:36:43;;;;;;;2.67;1.48;;;20.80;62.40;;;;;;5046512;28;20041;-56
2022/09/22 00:39:09;;;;;;;3.80;1.42;;;20.80;62.40;;;;;;5046382;28;20036;-56
2022/09/22 00:41:39;;;;;;;2.63;1.25;;;20.80;62.50;;;;;;5046146;28;20481;-56
2022/09/22 00:44:23;;;;;;;2.42;1.50;;;20.80;62.40;;;;;;5046205;28;20064;-56
2022/09/22 00:46:51;;;;;;;3.88;1.50;;;20.80;62.40;;;;;;5046132;28;20032;-57
2022/09/22 00:49:17;;;;;;;2.50;1.30;;;20.80;62.50;;;;;;5047938;28;20028;-56
2022/09/22 00:51:43;;;;;;;3.22;1.40;;;20.80;62.40;;;;;;5047046;28;20032;-56
2022/09/22 00:54:10;;;;;;;2.97;1.35;;;20.70;62.40;;;;;;5041677;28;20120;-56
2022/09/22 00:56:43;;;;;;;1.70;1.30;;;20.70;62.30;;;;;;5045850;28;20053;-56
2022/09/22 00:59:11;;;;;;;3.25;1.55;;;20.80;62.40;;;;;;5045972;28;20044;-56
2022/09/22 01:01:39;;;;;;;3.70;1.42;;;20.70;62.30;;;;;;5045962;28;20025;-56
2022/09/22 01:04:05;;;;;;;2.13;1.35;;;20.80;62.40;;;;;;5046260;28;20029;-56
2022/09/22 01:06:30;;;;;;;3.20;1.40;;;20.70;62.30;;;;;;5045434;28;20070;-56
2022/09/22 01:08:56;;;;;;;1.92;1.30;;;20.70;62.30;;;;;;5047421;28;20017;-56
2022/09/22 01:11:22;;;;;;;2.47;1.50;;;20.70;62.30;;;;;;5043996;28;20122;-56
2022/09/22 01:14:00;;;;;;;3.83;1.60;;;20.70;62.30;;;;;;5054314;28;20409;-56
2022/09/22 01:16:47;;;;;;;2.08;1.40;;;20.70;62.30;;;;;;5043932;28;20513;-56
2022/09/22 01:19:44;;;;;;;3.35;1.50;;;20.70;62.30;;;;;;5044188;28;20047;-56
2022/09/22 01:22:28;;;;;;;2.47;1.45;;;20.60;62.20;;;;;;5044363;28;20173;-56
2022/09/22 01:25:31;;;;;;;3.17;1.30;;;20.60;62.30;;;;;;5047081;28;20029;-56
2022/09/22 01:28:37;;;;;;;2.95;1.33;;;20.60;62.30;;;;;;5042314;28;20116;-56
2022/09/22 01:31:22;;;;;;;3.13;1.45;;;20.60;62.40;;;;;;5021683;28;20065;-56
2022/09/22 01:34:10;;;;;;;2.33;1.15;;;20.60;62.30;;;;;;5024254;28;20163;-56
2022/09/22 01:36:52;;;;;;;2.88;1.33;;;20.60;62.30;;;;;;4992646;28;20500;-56
2022/09/22 01:39:20;;;;;;;2.28;1.33;;;20.60;62.40;;;;;;5006780;28;20107;-56
2022/09/22 01:42:04;;;;;;;2.38;1.50;;;20.60;62.40;;;;;;5023403;28;20043;-56
2022/09/22 01:44:39;;;;;;;2.00;1.30;;;20.60;62.30;;;;;;5006004;28;20049;-56
2022/09/22 01:47:08;;;;;;;3.28;1.38;;;20.60;62.40;;;;;;5005351;28;20037;-56
2022/09/22 01:49:35;;;;;;;2.22;1.42;;;20.60;62.40;;;;;;4992909;28;20405;-57
2022/09/22 01:52:28;;;;;;;3.92;1.60;;;20.60;62.40;;;;;;5005441;28;20033;-56
2022/09/22 01:54:57;;;;;;;3.58;1.40;;;20.50;62.30;;;;;;5006536;28;20050;-56
2022/09/22 01:58:00;;;;;;;3.08;1.40;;;20.60;62.50;;;;;;5007601;28;20033;-56
2022/09/22 02:00:26;;;;;;;2.15;1.40;;;20.50;62.40;;;;;;5006332;28;20029;-56
2022/09/22 02:03:04;;;;;;;2.28;1.33;;;20.60;62.50;;;;;;5022179;28;20025;-56
2022/09/22 02:05:32;;;;;;;1.90;1.20;;;20.50;62.40;;;;;;5002613;28;20466;-56
2022/09/22 02:07:59;;;;;;;2.47;1.52;;;20.50;62.40;;;;;;5021074;28;20044;-56
2022/09/22 02:10:27;;;;;;;1.70;1.30;;;20.50;62.50;;;;;;5043431;28;20029;-56
2022/09/22 02:12:53;;;;;;;2.47;1.38;;;20.50;62.50;;;;;;5043987;28;20036;-56
2022/09/22 02:16:04;;;;;;;2.30;1.35;;;20.50;62.50;;;;;;5047240;28;20025;-56
2022/09/22 02:18:08;;;;;;;2.90;1.42;;;20.50;62.50;;;;;;5038780;28;20059;-56
2022/09/22 02:20:34;;;;;;;3.85;1.50;;;20.50;62.50;;;;;;5043764;28;20535;-56
2022/09/22 02:22:59;;;;;;;3.58;1.60;;;20.50;62.50;;;;;;5040885;28;20109;-56
2022/09/22 02:25:25;;;;;;;3.08;1.40;;;20.50;62.50;;;;;;5044656;28;20024;-56
2022/09/22 02:27:52;;;;;;;1.92;1.25;;;20.50;62.50;;;;;;5044577;28;20034;-56
2022/09/22 02:30:18;;;;;;;2.03;1.40;;;20.50;62.50;;;;;;5028790;28;20024;-56
2022/09/22 02:32:45;;;;;;;2.42;1.40;;;20.40;62.50;;;;;;5045451;28;20047;-56
2022/09/22 02:35:11;;;;;;;1.85;1.20;;;20.40;62.50;;;;;;5043562;28;20033;-56
2022/09/22 02:37:54;;;;;;;2.35;1.20;;;20.40;62.50;;;;;;5042842;28;20041;-57
2022/09/22 02:40:38;;;;;;;2.05;1.45;;;20.40;62.60;;;;;;5045075;28;20405;-56
2022/09/22 02:43:09;;;;;;;2.08;1.35;;;20.40;62.60;;;;;;5042108;28;20096;-56
2022/09/22 02:46:03;;;;;;;1.92;1.20;;;20.40;62.60;;;;;;5041186;28;20601;-56
2022/09/22 02:48:44;;;;;;;2.85;1.48;;;20.40;62.50;;;;;;5043903;28;20037;-56
2022/09/22 02:51:09;;;;;;;2.20;1.30;;;20.40;62.50;;;;;;5044315;28;20641;-56
2022/09/22 02:53:36;;;;;;;2.67;1.33;;;20.40;63.60;;;;;;5021527;28;20036;-56
2022/09/22 02:56:02;;;;;;;1.70;1.20;;;20.40;62.60;;;;;;5044506;28;20555;-56
2022/09/22 02:58:28;;;;;;;1.70;1.25;;;20.40;62.60;;;;;;5045587;28;20257;-56
2022/09/22 03:00:53;;;;;;;2.95;1.38;;;20.40;62.70;;;;;;5044874;28;20543;-57
2022/09/22 03:03:19;;;;;;;2.10;1.30;;;20.40;62.60;;;;;;5044602;28;20507;-56
2022/09/22 03:05:45;;;;;;;2.42;1.30;;;20.30;62.60;;;;;;5042970;28;20544;-56
2022/09/22 03:08:11;;;;;;;1.98;1.20;;;20.40;62.60;;;;;;5042992;28;20478;-56
2022/09/22 03:10:36;;;;;;;2.22;1.23;;;20.30;62.50;;;;;;5042518;28;20057;-56
2022/09/22 03:13:02;;;;;;;2.22;1.10;;;20.30;63.50;;;;;;5038243;28;20074;-56
2022/09/22 03:15:27;;;;;;;2.30;1.10;;;20.30;62.50;;;;;;5036525;28;20056;-56
2022/09/22 03:17:53;;;;;;;2.20;1.30;;;20.30;62.60;;;;;;5042737;28;20073;-56
2022/09/22 03:20:19;;;;;;;2.45;1.48;;;20.30;62.60;;;;;;5043937;28;20448;-56
2022/09/22 03:22:44;;;;;;;2.15;1.25;;;20.30;62.60;;;;;;5047151;28;20545;-56
2022/09/22 03:25:10;;;;;;;2.58;1.42;;;20.30;62.60;;;;;;5042032;28;20478;-56
2022/09/22 03:27:36;;;;;;;2.75;1.20;;;20.30;62.60;;;;;;5045991;28;20051;-56
2022/09/22 03:30:04;;;;;;;2.30;1.40;;;20.30;62.60;;;;;;5045631;28;20027;-56
2022/09/22 03:32:30;;;;;;;2.45;1.20;;;20.20;62.60;;;;;;5045895;28;20086;-56
2022/09/22 03:34:55;;;;;;;2.42;1.30;;;20.30;62.70;;;;;;5043425;28;20485;-56
2022/09/22 03:37:22;;;;;;;3.72;1.30;;;20.20;62.60;;;;;;5044698;28;20076;-56
2022/09/22 03:39:48;;;;;;;2.15;1.30;;;20.20;62.60;;;;;;5046986;28;20033;-56
2022/09/22 03:42:14;;;;;;;1.58;1.10;;;20.20;62.60;;;;;;5049346;28;20102;-56
2022/09/22 03:44:39;;;;;;;1.88;1.10;;;20.20;62.60;;;;;;5050694;28;20022;-56
2022/09/22 03:47:05;;;;;;;2.05;1.30;;;20.20;62.60;;;;;;5052409;28;20040;-56
2022/09/22 03:49:31;;;;;;;2.83;1.20;;;20.20;62.60;;;;;;5049367;28;20053;-56
2022/09/22 03:51:57;;;;;;;1.58;1.27;;;20.20;62.60;;;;;;5048197;28;20028;-56
2022/09/22 03:54:24;;;;;;;2.55;1.15;;;20.20;62.60;;;;;;5046733;28;20041;-56
2022/09/22 03:56:49;;;;;;;1.42;1.05;;;20.20;62.60;;;;;;5047478;28;20053;-56
2022/09/22 03:59:15;;;;;;;1.75;1.10;;;20.20;62.60;;;;;;5047365;28;20021;-56
2022/09/22 04:01:41;;;;;;;1.73;1.20;;;20.20;62.60;;;;;;5045716;28;20759;-56
2022/09/22 04:04:09;;;;;;;2.70;1.38;;;20.20;62.60;;;;;;5048825;28;20121;-56
2022/09/22 04:06:36;;;;;;;2.13;1.30;;;20.20;62.60;;;;;;5047324;28;20504;-56
2022/09/22 04:09:02;;;;;;;1.80;1.17;;;20.20;62.60;;;;;;5050014;28;20040;-56
2022/09/22 04:11:28;;;;;;;3.15;1.20;;;20.20;62.50;;;;;;5046865;28;20032;-56
2022/09/22 04:13:54;;;;;;;1.30;1.20;;;20.20;62.60;;;;;;5045448;28;20036;-57
2022/09/22 04:16:20;;;;;;;2.83;1.42;;;20.20;62.60;;;;;;5045193;28;20398;-56
2022/09/22 04:18:46;;;;;;;2.80;1.20;;;20.10;62.60;;;;;;5050304;28;20044;-56
2022/09/22 04:21:11;;;;;;;2.97;1.13;;;20.10;62.50;;;;;;5048625;28;20021;-56
2022/09/22 04:23:37;;;;;;;2.20;1.10;;;20.10;62.60;;;;;;5048700;28;20448;-56
2022/09/22 04:26:03;;;;;;;2.10;1.10;;;20.10;62.70;;;;;;5048332;28;20440;-56
2022/09/22 04:28:29;;;;;;;1.20;1.00;;;20.10;62.70;;;;;;5048144;28;20025;-56
2022/09/22 04:30:55;;;;;;;3.00;1.40;;;20.10;62.60;;;;;;5050317;28;20033;-56
2022/09/22 04:33:20;;;;;;;2.20;1.20;;;20.10;62.70;;;;;;5042754;28;20486;-56
2022/09/22 04:35:49;;;;;;;2.97;1.40;;;20.00;62.70;;;;;;5044210;28;20033;-56
2022/09/22 04:38:16;;;;;;;1.13;0.98;;;20.10;62.70;;;;;;5047272;28;20068;-57
2022/09/22 04:40:42;;;;;;;2.55;1.40;;;20.00;62.60;;;;;;5039469;28;20028;-56
2022/09/22 04:43:08;;;;;;;2.03;1.17;;;20.00;62.60;;;;;;5047822;28;20028;-56
2022/09/22 04:45:33;;;;;;;1.83;1.20;;;20.00;62.60;;;;;;5042800;28;20029;-56
2022/09/22 04:47:59;;;;;;;2.25;1.33;;;20.00;62.50;;;;;;5041079;28;20044;-56
2022/09/22 04:50:25;;;;;;;1.48;0.98;;;20.00;62.60;;;;;;5038551;28;20033;-56
2022/09/22 04:52:52;;;;;;;2.08;1.30;;;20.00;62.60;;;;;;5036290;28;20749;-54
2022/09/22 04:55:17;;;;;;;2.65;1.20;;;20.00;62.60;;;;;;5044330;28;20080;-57
2022/09/22 04:57:54;;;;;;;2.35;1.25;;;20.00;62.60;;;;;;5043544;28;20673;-56
2022/09/22 05:00:21;;;;;;;2.13;1.20;;;20.00;62.50;;;;;;5041081;28;20047;-55
2022/09/22 05:02:47;;;;;;;1.60;1.27;;;20.00;62.50;;;;;;5041367;28;20037;-56
2022/09/22 05:05:12;;;;;;;2.25;1.35;;;20.00;62.50;;;;;;5041072;28;20428;-56
2022/09/22 05:07:45;;;;;;;2.65;1.27;;;20.00;62.80;;;;;;5046518;28;20099;-56
2022/09/22 05:10:13;;;;;;;1.38;1.10;;;20.00;63.00;;;;;;5046118;28;20028;-56
2022/09/22 05:12:42;;;;;;;2.40;1.20;;;20.00;63.10;;;;;;5043946;28;20029;-56
2022/09/22 05:15:09;;;;;;;2.35;1.33;;;20.00;63.10;;;;;;5044039;28;20027;-56
2022/09/22 05:17:35;;;;;;;3.42;1.50;;;20.00;63.10;;;;;;5041302;28;20032;-56
2022/09/22 05:20:06;;;;;;;2.97;1.10;;;20.00;63.30;;;;;;5044005;28;20029;-55
2022/09/22 05:22:31;;;;;;;3.17;1.50;;;20.00;63.40;;;;;;5071373;28;20028;-57
2022/09/22 05:24:59;;;;;;;3.55;1.40;;;20.00;63.60;;;;;;5045267;28;20036;-57
2022/09/22 05:27:29;;;;;;;3.83;1.50;;;20.00;63.70;;;;;;5013947;28;20032;-56
2022/09/22 05:29:54;;;;;;;2.25;1.25;;;20.00;63.70;;;;;;5039242;28;20405;-55
2022/09/22 05:32:20;;;;;;;3.22;1.48;;;20.00;63.70;;;;;;5043844;28;20029;-56
2022/09/22 05:34:46;;;;;;;3.20;1.33;;;20.00;63.50;;;;;;5040683;28;20033;-57
2022/09/22 05:37:13;;;;;;;4.38;1.70;;;20.00;63.70;;;;;;5048224;28;20076;-57
2022/09/22 05:39:39;;;;;;;3.78;1.45;;;20.00;63.60;;;;;;5044911;28;20032;-58
2022/09/22 05:42:04;;;;;;;2.80;1.52;;;20.10;63.60;;;;;;5045442;28;20043;-57
2022/09/22 05:44:30;;;;;;;4.10;1.52;;;20.00;63.50;;;;;;5042581;28;20375;-57
2022/09/22 05:46:56;;;;;;;6.55;1.65;;;20.10;63.60;;;;;;5047110;28;20021;-58
2022/09/22 05:49:21;;;;;;;4.45;1.50;;;20.00;63.60;;;;;;5045987;28;20024;-57
2022/09/22 05:51:47;;;;;;;4.20;1.45;;;20.00;63.70;;;;;;5040320;28;20098;-57
2022/09/22 05:54:13;;;;;;;4.60;1.50;;;19.90;63.60;;;;;;5044291;28;20604;-58
2022/09/22 05:56:38;;;;;;;2.95;1.20;;;19.90;63.50;;;;;;5045468;28;20044;-57
2022/09/22 05:59:04;;;;;;;3.58;1.35;;;19.90;63.50;;;;;;5044576;28;20017;-57
2022/09/22 06:01:30;;;;;;;5.13;1.55;;;19.90;63.60;;;;;;5046465;28;20047;-57
2022/09/22 06:03:55;;;;;;;4.72;1.40;;;19.90;63.50;;;;;;5044223;28;20036;-57
2022/09/22 06:06:21;;;;;;;1.85;1.35;;;19.90;63.50;;;;;;5045473;28;20036;-57
2022/09/22 06:08:46;;;;;;;5.93;1.52;;;19.90;64.60;;;;;;5043761;28;20025;-57
2022/09/22 06:11:12;;;;;;;4.45;1.58;;;19.90;63.50;;;;;;5044943;28;20024;-57
2022/09/22 06:13:38;;;;;;;4.60;1.20;;;19.90;63.50;;;;;;5044960;28;20715;-57
2022/09/22 06:16:04;;;;;;;3.55;1.30;;;19.90;63.50;;;;;;5044941;28;20473;-57
2022/09/22 06:18:30;;;;;;;9.05;1.50;;;19.80;63.50;;;;;;5042419;28;20039;-57
2022/09/22 06:20:56;;;;;;;5.68;1.20;;;19.80;63.40;;;;;;5045089;28;20405;-58
2022/09/22 06:23:21;;;;;;;4.18;1.20;;;19.90;63.40;;;;;;5045337;28;20025;-57
2022/09/22 06:25:47;;;;;;;3.70;1.17;;;19.80;63.30;;;;;;5045649;28;20554;-57
2022/09/22 06:28:14;;;;;;;3.47;1.40;;;19.80;63.30;;;;;;5041890;28;20063;-58
2022/09/22 06:30:40;;;;;;;3.40;1.45;;;19.80;63.40;;;;;;5046104;28;20119;-57
2022/09/22 06:33:09;;;;;;;6.55;1.50;;;19.80;63.30;;;;;;5045186;28;20162;-57
2022/09/22 06:35:37;;;;;;;3.33;1.30;;;19.80;63.30;;;;;;5045768;28;20029;-58
2022/09/22 06:38:04;;;;;;;3.97;1.30;;;19.80;63.30;;;;;;5044468;28;20040;-58
2022/09/22 06:40:31;;;;;;;2.90;1.33;;;19.80;63.30;;;;;;5043592;28;20026;-57
2022/09/22 06:43:10;;;;;;;3.17;1.27;;;19.80;63.20;;;;;;5046025;28;20022;-57
2022/09/22 06:45:37;;;;;;;3.20;1.40;;;19.80;63.20;;;;;;5045187;28;20067;-57
2022/09/22 06:48:03;;;;;;;4.78;1.40;;;19.80;63.20;;;;;;5045107;28;20082;-57
2022/09/22 06:50:30;;;;;;;2.15;1.30;;;19.80;63.20;;;;;;5044653;28;20021;-57
2022/09/22 06:53:03;;;;;;;3.42;1.30;;;19.80;63.20;;;;;;5043221;28;20040;-57
2022/09/22 06:55:29;;;;;;;2.20;1.15;;;19.80;63.20;;;;;;5041945;28;20065;-57
2022/09/22 06:57:57;;;;;;;2.53;1.20;;;19.80;63.20;;;;;;5047131;28;20079;-57
2022/09/22 07:00:33;;;;;;;4.03;1.30;;;19.70;63.10;;;;;;5048045;28;20111;-57
2022/09/22 07:03:07;;;;;;;5.47;1.40;;;19.70;63.10;;;;;;5045598;28;20112;-57
2022/09/22 07:05:33;;;;;;;3.78;1.33;;;19.80;63.10;;;;;;5045197;28;20025;-58
2022/09/22 07:07:59;;;;;;;2.90;1.35;;;19.80;63.10;;;;;;5048403;28;20037;-57
2022/09/22 07:10:25;;;;;;;4.22;1.20;;;19.80;63.10;;;;;;5046447;28;20033;-57
2022/09/22 07:12:50;;;;;;;3.72;1.45;;;19.70;63.10;;;;;;5048761;28;20542;-57
2022/09/22 07:15:16;;;;;;;3.33;1.20;;;19.70;63.00;;;;;;5048338;28;20032;-57
2022/09/22 07:17:42;;;;;;;2.85;1.20;;;19.70;63.00;;;;;;5047884;28;20057;-57
2022/09/22 07:20:07;;;;;;;4.60;1.27;;;19.70;63.00;;;;;;5047626;28;20033;-57
2022/09/22 07:22:38;;;;;;;4.85;1.20;;;19.70;63.00;;;;;;5049695;28;20033;-57
2022/09/22 07:25:07;;;;;;;4.63;1.50;;;19.70;63.00;;;;;;5047355;28;20029;-57
2022/09/22 07:27:33;;;;;;;2.58;1.15;;;19.70;63.00;;;;;;5048863;28;20036;-58
2022/09/22 07:30:00;;;;;;;3.53;1.40;;;19.70;63.00;;;;;;5047621;28;20037;-57
2022/09/22 07:32:27;;;;;;;2.92;1.20;;;19.70;63.00;;;;;;5048594;28;20531;-57
2022/09/22 07:34:52;;;;;;;3.83;1.33;;;19.70;63.00;;;;;;5046487;28;20029;-58
2022/09/22 07:37:18;;;;;;;2.17;1.17;;;19.70;63.00;;;;;;5047901;28;20040;-57
2022/09/22 07:39:46;;;;;;;4.50;1.30;;;19.70;62.90;;;;;;5048871;28;20036;-57
2022/09/22 07:42:12;;;;;;;3.67;1.27;;;19.70;62.90;;;;;;5048995;28;20493;-57
2022/09/22 07:48:35;;;;;;;3.23;1.27;;;19.70;62.90;;;;;;5048907;28;20083;-57
2022/09/22 07:50:08;;;;;;;4.63;1.58;;;19.70;62.80;;;;;;5047999;28;20033;-57
2022/09/22 07:52:34;;;;;;;2.38;1.35;;;19.70;62.70;;;;;;5048930;28;20051;-57
2022/09/22 07:54:59;;;;;;;2.90;1.27;;;19.70;62.80;;;;;;5047716;28;20513;-57
2022/09/22 07:57:25;;;;;;;2.40;1.05;;;19.70;62.80;;;;;;5047598;28;20498;-57
2022/09/22 07:59:51;;;;;;;3.25;1.15;;;19.80;62.80;;;;;;5047464;28;20070;-57
2022/09/22 08:02:16;;;;;;;2.80;1.10;;;19.80;62.80;;;;;;5047818;28;20029;-57
2022/09/22 08:04:42;;;;;;;3.70;1.30;;;19.80;62.80;;;;;;5046802;28;20151;-57
2022/09/22 08:07:08;;;;;;;3.85;1.20;;;19.80;62.90;;;;;;5046897;28;20119;-57
2022/09/22 08:09:34;;;;;;;3.80;1.40;;;19.80;63.00;;;;;;5046078;28;20136;-57
2022/09/22 08:12:01;;;;;;;2.25;1.10;;;19.80;63.00;;;;;;5046623;28;20044;-57
2022/09/22 08:14:27;;;;;;;2.85;1.25;;;19.80;63.10;;;;;;5047018;28;20112;-57
2022/09/22 08:16:52;;;;;;;3.83;1.55;;;19.80;63.20;;;;;;5045236;28;20156;-57
2022/09/22 08:19:18;;;;;;;2.08;1.20;;;19.80;63.20;;;;;;5048983;28;20035;-57
2022/09/22 08:21:47;;;;;;;3.28;1.30;;;19.80;63.20;;;;;;5047489;28;20118;-57
2022/09/22 08:24:13;;;;;;;2.70;1.40;;;19.80;63.20;;;;;;5047390;28;20120;-58
2022/09/22 08:26:42;;;;;;;3.92;1.30;;;19.80;63.20;;;;;;5046402;28;20036;-57
2022/09/22 08:29:07;;;;;;;4.68;1.45;;;19.80;63.10;;;;;;5047594;28;20021;-57
2022/09/22 08:31:34;;;;;;;2.47;1.20;;;19.80;63.20;;;;;;5046627;28;20021;-57
2022/09/22 08:33:59;;;;;;;3.75;1.42;;;19.90;63.30;;;;;;5048034;28;20040;-57
2022/09/22 08:36:28;;;;;;;2.83;1.23;;;19.80;63.20;;;;;;5047892;28;20485;-57
2022/09/22 08:38:55;;;;;;;2.78;1.30;;;19.90;63.30;;;;;;5044279;28;20029;-56
2022/09/22 08:41:38;;;;;;;3.10;1.20;;;19.90;63.30;;;;;;5047122;28;20029;-57
2022/09/22 08:44:08;;;;;;;4.00;1.50;;;19.90;63.60;;;;;;5045744;28;20485;-57
2022/09/22 08:46:34;;;;;;;3.75;1.20;;;19.90;63.50;;;;;;5047809;28;20175;-58
2022/09/22 08:52:37;;;;;;;4.63;1.38;;;19.90;63.70;;;;;;5044634;28;20413;-57
2022/09/22 08:55:03;;;;;;;1.55;1.15;;;19.90;63.50;;;;;;5032021;28;20045;-58
2022/09/22 08:57:39;;;;;;;3.72;1.30;;;19.90;63.60;;;;;;5046089;28;20119;-57
2022/09/22 09:00:14;;;;;;;3.45;1.35;;;20.00;63.70;;;;;;5045284;28;20100;-57
2022/09/22 09:02:59;;;;;;;2.20;1.40;;;20.00;63.60;;;;;;5043178;28;20028;-57
2022/09/22 09:05:46;;;;;;;2.90;1.27;;;20.00;63.60;;;;;;5045905;28;20033;-58
2022/09/22 09:08:21;;;;;;;3.25;1.40;;;20.00;63.70;;;;;;5046415;28;20025;-57
2022/09/22 09:10:58;;;;;;;1.45;1.10;;;20.00;63.70;;;;;;5043861;28;20425;-57
2022/09/22 09:13:49;;;;;;;3.65;1.17;;;20.00;63.70;;;;;;5045807;28;20123;-57
2022/09/22 09:16:39;;;;;;;2.45;1.20;;;20.10;63.60;;;;;;5047686;28;20843;-58
2022/09/22 09:19:11;;;;;;;4.78;1.40;;;20.10;63.80;;;;;;5043812;28;20033;-58
2022/09/22 09:21:38;;;;;;;2.83;1.20;;;20.10;63.70;;;;;;5030497;28;20035;-57
2022/09/22 09:24:05;;;;;;;2.80;1.30;;;20.10;63.70;;;;;;5030240;28;20409;-58
2022/09/22 09:26:32;;;;;;;2.75;1.40;;;20.10;63.60;;;;;;5045551;28;20017;-57
2022/09/22 09:28:59;;;;;;;3.40;1.52;;;20.10;63.60;;;;;;5045341;28;20025;-57
2022/09/22 09:31:47;;;;;;;1.92;1.10;;;20.20;63.60;;;;;;5046259;28;20100;-58
2022/09/22 09:34:16;;;;;;;5.03;1.45;;;20.20;63.50;;;;;;5045902;28;20391;-58
2022/09/22 09:36:44;;;;;;;2.22;1.30;;;20.20;63.50;;;;;;5071787;28;22388;-58
2022/09/22 09:39:12;;;;;;;3.17;1.20;;;20.20;63.50;;;;;;5046066;28;20052;-57
2022/09/22 09:41:38;;;;;;;2.20;1.10;;;20.20;63.40;;;;;;5041173;28;20028;-58
2022/09/22 09:44:03;;;;;;;2.40;1.20;;;20.20;63.30;;;;;;5028449;28;20033;-57
2022/09/22 09:47:10;;;;;;;3.22;1.20;;;20.20;63.30;;;;;;5044347;28;20039;-57
2022/09/22 09:49:36;;;;;;;2.72;1.30;;;20.20;63.40;;;;;;5017642;28;20124;-57
2022/09/22 09:52:02;;;;;;;2.65;1.20;;;20.20;63.40;;;;;;5038329;28;20160;-57
2022/09/22 09:54:28;;;;;;;1.92;1.20;;;20.30;63.40;;;;;;5021089;28;20044;-58
2022/09/22 09:57:13;;;;;;;2.65;1.15;;;20.30;63.40;;;;;;5037057;28;20562;-58
2022/09/22 10:02:34;;;;;;;2.17;1.10;;;20.30;63.30;;;;;;5030068;28;20641;-57
2022/09/22 10:05:02;;;;;;;1.90;1.30;;;20.40;63.30;;;;;;5018915;28;20026;-57
2022/09/22 10:07:38;;;;;;;3.05;1.17;;;20.40;63.20;;;;;;5037822;28;20529;-58
2022/09/22 10:10:28;;;;;;;3.08;1.20;;;20.40;63.20;;;;;;5034106;28;20029;-57
2022/09/22 10:13:03;;;;;;;3.10;1.20;;;20.40;63.20;;;;;;5036648;28;20553;-58
2022/09/22 10:15:32;;;;;;;1.67;1.00;;;20.40;63.10;;;;;;5036389;28;20069;-57
2022/09/22 10:17:58;;;;;;;2.65;1.17;;;20.50;63.10;;;;;;5019983;28;20133;-58
2022/09/22 10:20:25;;;;;;;2.22;1.02;;;20.50;63.20;;;;;;5019763;28;20119;-58
2022/09/22 10:22:51;;;;;;;3.42;1.17;;;20.50;63.10;;;;;;5033577;28;20501;-57
2022/09/22 10:25:30;;;;;;;2.35;1.25;;;20.50;63.10;;;;;;5035819;28;20025;-57
2022/09/22 10:28:13;;;;;;;1.83;1.20;;;20.50;63.00;;;;;;5041444;28;20029;-58
2022/09/22 10:30:39;;;;;;;2.20;1.10;;;20.50;63.00;;;;;;5044357;28;20124;-58
2022/09/22 10:33:18;;;;;;;2.50;1.15;;;20.50;62.90;;;;;;5044399;28;20045;-58
2022/09/22 10:35:55;;;;;;;1.98;1.17;;;20.60;63.00;;;;;;5043840;28;20075;-58
2022/09/22 10:38:28;;;;;;;1.60;1.10;;;20.60;64.00;;;;;;5042078;28;20410;-58
2022/09/22 10:41:06;;;;;;;2.42;1.20;;;20.60;62.90;;;;;;5043826;28;20494;-57
2022/09/22 10:43:43;;;;;;;3.17;1.13;;;20.60;62.80;;;;;;5046766;28;20028;-57
2022/09/22 10:46:25;;;;;;;1.75;1.10;;;20.60;63.00;;;;;;5070743;28;20103;-58
2022/09/22 10:48:54;;;;;;;4.20;1.27;;;20.60;62.80;;;;;;5043440;28;20397;-57
2022/09/22 10:51:30;;;;;;;3.00;1.20;;;20.70;62.80;;;;;;5043788;28;20486;-58
2022/09/22 10:54:20;;;;;;;4.88;1.40;;;20.70;62.90;;;;;;5042522;28;20123;-58
2022/09/22 10:56:52;;;;;;;3.13;1.48;;;20.70;62.90;;;;;;5044984;28;20039;-58
2022/09/22 10:59:43;;;;;;;2.78;1.45;;;20.80;63.00;;;;;;5045108;28;20029;-58
2022/09/22 11:02:20;;;;;;;3.88;1.40;;;20.80;63.10;;;;;;5042322;28;20040;-58
2022/09/22 11:04:50;;;;;;;4.03;1.27;;;20.80;63.10;;;;;;5044556;28;20390;-58
2022/09/22 11:13:22;;;;;;;4.53;1.45;;;20.90;63.20;;;;;;5043242;28;20040;-58
2022/09/22 11:16:10;;;;;;;5.13;1.50;;;20.90;63.10;;;;;;5029820;28;20040;-57
2022/09/22 11:19:02;;;;;;;3.97;1.30;;;21.00;63.20;;;;;;5043504;28;20033;-58
2022/09/22 11:21:49;;;;;;;4.47;1.80;;;21.00;63.20;;;;;;5047234;28;20706;-58
2022/09/22 11:24:22;;;;;;;3.67;1.30;;;21.00;63.20;;;;;;5044412;28;20584;-58
2022/09/22 11:26:48;;;;;;;2.70;1.30;;;21.00;63.10;;;;;;5039749;28;20029;-57
2022/09/22 11:29:36;;;;;;;4.03;1.20;;;21.10;62.90;;;;;;5045303;28;20032;-58
2022/09/22 11:32:10;;;;;;;3.97;1.55;;;21.10;62.90;;;;;;5045308;28;20029;-58
2022/09/22 11:34:36;;;;;;;;;;;21.10;64.10;;;;;;5044960;28;20029;-58
2022/09/22 11:37:26;;;;;;;5.70;1.60;;;21.20;63.00;;;;;;5042524;28;19916;-58
2022/09/22 11:40:31;;;;;;;2.90;1.40;;;21.20;62.90;;;;;;5045133;28;20025;-58
2022/09/22 11:43:33;;;;;;;4.05;1.25;;;21.20;62.90;;;;;;5045336;28;20085;-58
2022/09/22 11:46:15;;;;;;;6.32;1.40;;;21.20;62.90;;;;;;5048167;28;20508;-58
2022/09/22 11:49:06;;;;;;;3.53;1.23;;;21.30;63.10;;;;;;5043083;28;20489;-58
2022/09/22 11:51:32;;;;;;;4.22;1.52;;;21.30;63.00;;;;;;5028665;28;20394;-58
2022/09/22 11:54:48;;;;;;;2.72;1.40;;;21.40;63.00;;;;;;5044879;28;20041;-57
2022/09/22 11:57:16;;;;;;;;;;;21.40;62.80;;;;;;4997924;28;20612;-58
2022/09/22 11:59:52;;;;;;;7.55;1.45;;;21.50;62.90;;;;;;5000570;28;20689;-57
2022/09/22 12:02:27;;;;;;;4.28;1.40;;;21.50;62.80;;;;;;4983489;28;20584;-58
2022/09/22 12:05:01;;;;;;;4.30;1.30;;;21.60;62.70;;;;;;4985441;28;20525;-58
2022/09/22 12:07:32;;;;;;;7.22;1.40;;;21.60;62.70;;;;;;4987757;28;20130;-58
2022/09/22 12:10:01;;;;;;;4.30;1.38;;;21.60;62.80;;;;;;4980842;28;20038;-58
2022/09/22 12:12:28;;;;;;;4.43;1.50;;;21.60;62.80;;;;;;5003096;28;20025;-58
2022/09/22 12:15:13;;;;;;;3.47;1.40;;;21.70;62.80;;;;;;4989390;28;20089;-58
2022/09/22 12:17:50;;;;;;;;;;;21.70;62.80;;;;;;4990000;28;20108;-58
2022/09/22 12:20:26;;;;;;;3.63;1.38;;;21.70;62.60;;;;;;4989710;28;19917;-58
2022/09/22 12:23:29;;;;;;;4.18;1.50;;;21.80;62.60;;;;;;4988626;28;20403;-58
2022/09/22 12:25:55;;;;;;;3.13;1.30;;;21.80;62.80;;;;;;4992507;28;20053;-58
2022/09/22 12:28:24;;;;;;;3.88;1.35;;;21.90;62.70;;;;;;4993993;28;20052;-58
2022/09/22 12:30:58;;;;;;;3.63;1.50;;;21.90;62.50;;;;;;4979056;28;20458;-58
2022/09/22 12:33:25;;;;;;;4.03;1.30;;;21.90;62.50;;;;;;5028242;28;20580;-58
2022/09/22 12:35:52;;;;;;;2.88;1.20;;;21.90;62.50;;;;;;5046232;28;20103;-58
2022/09/22 12:38:19;;;;;;;4.68;1.30;;;21.90;62.40;;;;;;5045476;28;20025;-58
2022/09/22 12:40:47;;;;;;;3.95;1.40;;;21.90;62.40;;;;;;5045539;28;20091;-58
2022/09/22 12:43:19;;;;;;;3.33;1.38;;;22.00;62.50;;;;;;5045913;28;20049;-58
2022/09/22 12:45:44;;;;;;;2.28;1.30;;;22.00;62.50;;;;;;5047068;28;20067;-58
2022/09/22 12:48:15;;;;;;;9.18;1.60;;;22.00;62.50;;;;;;5044732;28;20048;-58
2022/09/22 12:50:42;;;;;;;9.95;1.80;;;22.00;62.30;;;;;;5046487;28;20074;-58
2022/09/22 12:53:20;;;;;;;4.60;1.65;;;22.00;62.10;;;;;;5046710;28;20116;-58
2022/09/22 12:55:47;;;;;;;5.00;1.77;;;22.00;62.00;;;;;;5046140;28;20048;-58
2022/09/22 12:58:22;;;;;;;4.90;1.50;;;22.10;62.00;;;;;;5045812;28;20082;-58
2022/09/22 13:00:49;;;;;;;6.18;1.92;;;22.00;61.70;;;;;;5047688;28;20039;-58
2022/09/22 13:03:24;;;;;;;4.35;1.70;;;22.00;61.80;;;;;;5045238;28;20056;-58
2022/09/22 13:06:01;;;;;;;4.40;1.80;;;22.00;61.90;;;;;;5046968;28;20537;-58
2022/09/22 13:08:32;;;;;;;5.18;1.88;;;22.00;61.80;;;;;;5047566;28;20013;-58
2022/09/22 13:11:01;;;;;;;4.50;2.03;;;22.00;61.80;;;;;;5046243;28;20095;-58
2022/09/22 13:13:30;;;;;;;4.47;2.10;;;22.00;61.70;;;;;;5046644;28;20045;-58
2022/09/22 13:16:00;;;;;;;6.93;2.08;;;22.00;61.80;;;;;;5046110;28;20091;-57
2022/09/22 13:18:29;;;;;;;4.03;1.88;;;22.00;61.90;;;;;;5045938;28;20104;-57
2022/09/22 13:20:56;;;;;;;4.13;2.00;;;22.00;61.80;;;;;;5046941;28;20029;-58